sensor_id;sensor_type;location;lat;lon;timestamp;P1;durP1;ratioP1;P2;durP2;ratioP2
25237;SDS011;13185;50.872;5.306;2023-09-19T00:01:39;8.15;;;1.60;;
25237;SDS011;13185;50.872;5.306;2023-09-19T00:04:06;8.55;;;2.03;;
25237;SDS011;13185;50.872;5.306;2023-09-19T00:06:35;10.30;;;1.33;;
25237;SDS011;13185;50.872;5.306;2023-09-19T00:09:04;6.03;;;1.50;;
25237;SDS011;13185;50.872;5.306;2023-09-19T00:11:30;7.03;;;1.40;;
25237;SDS011;13185;50.872;5.306;2023-09-19T00:13:56;7.03;;;1.20;;
25237;SDS011;13185;50.872;5.306;2023-09-19T00:16:24;8.77;;;2.17;;
25237;SDS011;13185;50.872;5.306;2023-09-19T00:18:51;6.60;;;1.38;;
25237;SDS011;13185;50.872;5.306;2023-09-19T00:21:16;12.10;;;1.88;;
25237;SDS011;13185;50.872;5.306;2023-09-19T00:23:42;10.60;;;1.40;;
25237;SDS011;13185;50.872;5.306;2023-09-19T00:26:07;8.23;;;1.85;;
25237;SDS011;13185;50.872;5.306;2023-09-19T00:28:33;5.60;;;1.30;;
25237;SDS011;13185;50.872;5.306;2023-09-19T00:30:58;6.97;;;1.70;;
25237;SDS011;13185;50.872;5.306;2023-09-19T00:33:27;7.88;;;1.50;;
25237;SDS011;13185;50.872;5.306;2023-09-19T00:35:54;4.55;;;1.52;;
25237;SDS011;13185;50.872;5.306;2023-09-19T00:38:22;7.47;;;1.40;;
25237;SDS011;13185;50.872;5.306;2023-09-19T00:40:52;5.20;;;1.60;;
25237;SDS011;13185;50.872;5.306;2023-09-19T00:43:18;9.90;;;1.95;;
25237;SDS011;13185;50.872;5.306;2023-09-19T00:45:45;7.53;;;1.83;;
25237;SDS011;13185;50.872;5.306;2023-09-19T00:48:13;6.72;;;1.40;;
25237;SDS011;13185;50.872;5.306;2023-09-19T00:50:43;10.25;;;1.65;;
25237;SDS011;13185;50.872;5.306;2023-09-19T00:53:13;6.20;;;1.42;;
25237;SDS011;13185;50.872;5.306;2023-09-19T00:55:40;5.45;;;1.17;;
25237;SDS011;13185;50.872;5.306;2023-09-19T00:58:08;6.85;;;1.40;;
25237;SDS011;13185;50.872;5.306;2023-09-19T01:00:35;9.73;;;1.85;;
25237;SDS011;13185;50.872;5.306;2023-09-19T01:03:01;6.18;;;1.30;;
25237;SDS011;13185;50.872;5.306;2023-09-19T01:05:28;8.13;;;1.55;;
25237;SDS011;13185;50.872;5.306;2023-09-19T01:07:54;7.47;;;1.23;;
25237;SDS011;13185;50.872;5.306;2023-09-19T01:10:21;6.95;;;2.00;;
25237;SDS011;13185;50.872;5.306;2023-09-19T01:13:05;10.15;;;1.55;;
25237;SDS011;13185;50.872;5.306;2023-09-19T01:21:55;8.43;;;2.05;;
25237;SDS011;13185;50.872;5.306;2023-09-19T01:24:54;10.35;;;2.17;;
25237;SDS011;13185;50.872;5.306;2023-09-19T01:27:42;7.88;;;1.35;;
25237;SDS011;13185;50.872;5.306;2023-09-19T01:30:40;8.70;;;1.30;;
25237;SDS011;13185;50.872;5.306;2023-09-19T01:33:09;4.97;;;1.55;;
25237;SDS011;13185;50.872;5.306;2023-09-19T01:35:39;2.83;;;1.02;;
25237;SDS011;13185;50.872;5.306;2023-09-19T01:38:07;10.68;;;2.15;;
25237;SDS011;13185;50.872;5.306;2023-09-19T01:40:43;13.38;;;2.10;;
25237;SDS011;13185;50.872;5.306;2023-09-19T01:48:43;5.65;;;1.30;;
25237;SDS011;13185;50.872;5.306;2023-09-19T01:51:22;7.53;;;1.70;;
25237;SDS011;13185;50.872;5.306;2023-09-19T01:56:50;6.50;;;1.75;;
25237;SDS011;13185;50.872;5.306;2023-09-19T01:59:16;10.98;;;1.70;;
25237;SDS011;13185;50.872;5.306;2023-09-19T02:01:46;8.18;;;1.45;;
25237;SDS011;13185;50.872;5.306;2023-09-19T02:04:14;9.63;;;2.00;;
25237;SDS011;13185;50.872;5.306;2023-09-19T02:06:40;7.63;;;1.67;;
25237;SDS011;13185;50.872;5.306;2023-09-19T02:09:06;9.98;;;1.60;;
25237;SDS011;13185;50.872;5.306;2023-09-19T02:11:32;5.80;;;1.60;;
25237;SDS011;13185;50.872;5.306;2023-09-19T02:13:57;10.82;;;1.92;;
25237;SDS011;13185;50.872;5.306;2023-09-19T02:16:24;8.25;;;1.58;;
25237;SDS011;13185;50.872;5.306;2023-09-19T02:18:50;5.50;;;1.50;;
25237;SDS011;13185;50.872;5.306;2023-09-19T02:21:16;8.75;;;1.50;;
25237;SDS011;13185;50.872;5.306;2023-09-19T02:23:43;8.43;;;2.10;;
25237;SDS011;13185;50.872;5.306;2023-09-19T02:26:12;9.73;;;1.58;;
25237;SDS011;13185;50.872;5.306;2023-09-19T02:28:40;9.70;;;1.60;;
25237;SDS011;13185;50.872;5.306;2023-09-19T02:31:07;11.00;;;2.10;;
25237;SDS011;13185;50.872;5.306;2023-09-19T02:33:33;6.50;;;1.50;;
25237;SDS011;13185;50.872;5.306;2023-09-19T02:35:58;13.20;;;1.80;;
25237;SDS011;13185;50.872;5.306;2023-09-19T02:38:26;7.18;;;1.75;;
25237;SDS011;13185;50.872;5.306;2023-09-19T02:40:52;7.22;;;1.70;;
25237;SDS011;13185;50.872;5.306;2023-09-19T02:43:18;8.10;;;1.80;;
25237;SDS011;13185;50.872;5.306;2023-09-19T02:45:47;12.60;;;1.70;;
25237;SDS011;13185;50.872;5.306;2023-09-19T02:48:15;9.27;;;1.98;;
25237;SDS011;13185;50.872;5.306;2023-09-19T02:50:41;9.40;;;2.05;;
25237;SDS011;13185;50.872;5.306;2023-09-19T02:53:07;9.43;;;1.70;;
25237;SDS011;13185;50.872;5.306;2023-09-19T02:55:33;8.95;;;1.63;;
25237;SDS011;13185;50.872;5.306;2023-09-19T02:57:59;8.30;;;1.67;;
25237;SDS011;13185;50.872;5.306;2023-09-19T03:00:25;10.18;;;1.55;;
25237;SDS011;13185;50.872;5.306;2023-09-19T03:02:55;6.85;;;1.33;;
25237;SDS011;13185;50.872;5.306;2023-09-19T03:05:22;13.13;;;1.98;;
25237;SDS011;13185;50.872;5.306;2023-09-19T03:07:51;8.02;;;1.65;;
25237;SDS011;13185;50.872;5.306;2023-09-19T03:10:20;8.60;;;1.67;;
25237;SDS011;13185;50.872;5.306;2023-09-19T03:12:47;6.70;;;2.08;;
25237;SDS011;13185;50.872;5.306;2023-09-19T03:15:13;12.32;;;1.75;;
25237;SDS011;13185;50.872;5.306;2023-09-19T03:17:50;6.05;;;1.40;;
25237;SDS011;13185;50.872;5.306;2023-09-19T03:20:20;15.13;;;2.33;;
25237;SDS011;13185;50.872;5.306;2023-09-19T03:22:47;9.80;;;2.40;;
25237;SDS011;13185;50.872;5.306;2023-09-19T03:25:14;8.45;;;2.05;;
25237;SDS011;13185;50.872;5.306;2023-09-19T03:27:43;8.63;;;1.92;;
25237;SDS011;13185;50.872;5.306;2023-09-19T03:30:09;10.70;;;1.70;;
25237;SDS011;13185;50.872;5.306;2023-09-19T03:32:47;8.77;;;1.80;;
25237;SDS011;13185;50.872;5.306;2023-09-19T03:35:16;8.82;;;1.83;;
25237;SDS011;13185;50.872;5.306;2023-09-19T03:37:42;7.60;;;1.60;;
25237;SDS011;13185;50.872;5.306;2023-09-19T03:40:08;12.45;;;2.72;;
25237;SDS011;13185;50.872;5.306;2023-09-19T03:42:42;10.70;;;2.13;;
25237;SDS011;13185;50.872;5.306;2023-09-19T03:45:11;11.82;;;1.85;;
25237;SDS011;13185;50.872;5.306;2023-09-19T03:47:38;11.65;;;1.90;;
25237;SDS011;13185;50.872;5.306;2023-09-19T03:50:06;10.95;;;3.00;;
25237;SDS011;13185;50.872;5.306;2023-09-19T03:52:34;15.02;;;2.55;;
25237;SDS011;13185;50.872;5.306;2023-09-19T03:55:00;13.02;;;2.42;;
25237;SDS011;13185;50.872;5.306;2023-09-19T03:57:28;11.30;;;2.13;;
25237;SDS011;13185;50.872;5.306;2023-09-19T03:59:54;5.97;;;1.52;;
25237;SDS011;13185;50.872;5.306;2023-09-19T04:02:20;8.98;;;1.80;;
25237;SDS011;13185;50.872;5.306;2023-09-19T04:04:49;10.25;;;2.10;;
25237;SDS011;13185;50.872;5.306;2023-09-19T04:07:18;12.50;;;1.92;;
25237;SDS011;13185;50.872;5.306;2023-09-19T04:09:47;9.55;;;1.80;;
25237;SDS011;13185;50.872;5.306;2023-09-19T04:12:14;11.02;;;2.05;;
25237;SDS011;13185;50.872;5.306;2023-09-19T04:14:42;7.15;;;2.00;;
25237;SDS011;13185;50.872;5.306;2023-09-19T04:17:07;6.90;;;1.58;;
25237;SDS011;13185;50.872;5.306;2023-09-19T04:19:33;9.38;;;1.48;;
25237;SDS011;13185;50.872;5.306;2023-09-19T04:21:58;12.73;;;2.22;;
25237;SDS011;13185;50.872;5.306;2023-09-19T04:24:24;9.88;;;1.95;;
25237;SDS011;13185;50.872;5.306;2023-09-19T04:26:50;7.43;;;1.70;;
25237;SDS011;13185;50.872;5.306;2023-09-19T04:29:15;11.38;;;1.60;;
25237;SDS011;13185;50.872;5.306;2023-09-19T04:31:40;10.38;;;2.17;;
25237;SDS011;13185;50.872;5.306;2023-09-19T04:34:08;9.55;;;2.03;;
25237;SDS011;13185;50.872;5.306;2023-09-19T04:36:35;9.52;;;1.60;;
25237;SDS011;13185;50.872;5.306;2023-09-19T04:39:02;10.15;;;1.40;;
25237;SDS011;13185;50.872;5.306;2023-09-19T04:41:30;13.32;;;1.70;;
25237;SDS011;13185;50.872;5.306;2023-09-19T04:43:56;8.80;;;1.63;;
25237;SDS011;13185;50.872;5.306;2023-09-19T04:46:21;9.93;;;1.85;;
25237;SDS011;13185;50.872;5.306;2023-09-19T04:48:47;7.35;;;1.45;;
25237;SDS011;13185;50.872;5.306;2023-09-19T04:51:12;6.85;;;1.30;;
25237;SDS011;13185;50.872;5.306;2023-09-19T04:53:38;9.15;;;1.60;;
25237;SDS011;13185;50.872;5.306;2023-09-19T04:56:04;5.72;;;1.40;;
25237;SDS011;13185;50.872;5.306;2023-09-19T04:58:31;7.72;;;1.48;;
25237;SDS011;13185;50.872;5.306;2023-09-19T05:00:57;11.73;;;2.03;;
25237;SDS011;13185;50.872;5.306;2023-09-19T05:03:22;14.40;;;2.47;;
25237;SDS011;13185;50.872;5.306;2023-09-19T05:05:48;10.68;;;2.65;;
25237;SDS011;13185;50.872;5.306;2023-09-19T05:08:14;9.13;;;1.95;;
25237;SDS011;13185;50.872;5.306;2023-09-19T05:10:40;13.18;;;2.08;;
25237;SDS011;13185;50.872;5.306;2023-09-19T05:13:06;11.15;;;1.85;;
25237;SDS011;13185;50.872;5.306;2023-09-19T05:15:33;22.58;;;2.50;;
25237;SDS011;13185;50.872;5.306;2023-09-19T05:18:00;14.35;;;2.22;;
25237;SDS011;13185;50.872;5.306;2023-09-19T05:20:26;20.25;;;3.20;;
25237;SDS011;13185;50.872;5.306;2023-09-19T05:23:12;23.05;;;2.63;;
25237;SDS011;13185;50.872;5.306;2023-09-19T05:25:38;21.65;;;2.53;;
25237;SDS011;13185;50.872;5.306;2023-09-19T05:28:05;15.63;;;2.78;;
25237;SDS011;13185;50.872;5.306;2023-09-19T05:30:32;11.57;;;2.55;;
25237;SDS011;13185;50.872;5.306;2023-09-19T05:32:58;32.08;;;4.30;;
25237;SDS011;13185;50.872;5.306;2023-09-19T05:35:24;23.98;;;3.28;;
25237;SDS011;13185;50.872;5.306;2023-09-19T05:37:51;22.95;;;4.20;;
25237;SDS011;13185;50.872;5.306;2023-09-19T05:40:17;14.48;;;2.42;;
25237;SDS011;13185;50.872;5.306;2023-09-19T05:42:43;15.90;;;2.33;;
25237;SDS011;13185;50.872;5.306;2023-09-19T05:45:10;23.50;;;2.95;;
25237;SDS011;13185;50.872;5.306;2023-09-19T05:47:41;18.45;;;3.05;;
25237;SDS011;13185;50.872;5.306;2023-09-19T05:50:08;12.95;;;2.50;;
25237;SDS011;13185;50.872;5.306;2023-09-19T05:52:35;14.48;;;2.35;;
25237;SDS011;13185;50.872;5.306;2023-09-19T05:55:03;22.60;;;3.50;;
25237;SDS011;13185;50.872;5.306;2023-09-19T05:57:35;17.23;;;2.47;;
25237;SDS011;13185;50.872;5.306;2023-09-19T06:00:08;14.73;;;3.40;;
25237;SDS011;13185;50.872;5.306;2023-09-19T06:02:40;7.38;;;1.80;;
25237;SDS011;13185;50.872;5.306;2023-09-19T06:05:05;8.30;;;1.42;;
25237;SDS011;13185;50.872;5.306;2023-09-19T06:07:34;7.90;;;1.58;;
25237;SDS011;13185;50.872;5.306;2023-09-19T06:10:05;11.75;;;1.52;;
25237;SDS011;13185;50.872;5.306;2023-09-19T06:12:32;19.48;;;3.13;;
25237;SDS011;13185;50.872;5.306;2023-09-19T06:15:03;15.38;;;2.45;;
25237;SDS011;13185;50.872;5.306;2023-09-19T06:17:34;19.40;;;2.80;;
25237;SDS011;13185;50.872;5.306;2023-09-19T06:20:04;20.33;;;2.55;;
25237;SDS011;13185;50.872;5.306;2023-09-19T06:25:02;16.73;;;2.65;;
25237;SDS011;13185;50.872;5.306;2023-09-19T06:27:27;22.52;;;3.67;;
25237;SDS011;13185;50.872;5.306;2023-09-19T06:29:54;30.30;;;3.72;;
25237;SDS011;13185;50.872;5.306;2023-09-19T06:32:26;15.93;;;3.63;;
25237;SDS011;13185;50.872;5.306;2023-09-19T06:34:52;13.07;;;1.90;;
25237;SDS011;13185;50.872;5.306;2023-09-19T06:37:20;12.25;;;2.53;;
25237;SDS011;13185;50.872;5.306;2023-09-19T06:39:46;12.65;;;1.90;;
25237;SDS011;13185;50.872;5.306;2023-09-19T06:42:14;21.77;;;3.60;;
25237;SDS011;13185;50.872;5.306;2023-09-19T06:44:42;31.23;;;4.60;;
25237;SDS011;13185;50.872;5.306;2023-09-19T06:47:08;17.83;;;2.35;;
25237;SDS011;13185;50.872;5.306;2023-09-19T06:49:35;20.02;;;2.83;;
25237;SDS011;13185;50.872;5.306;2023-09-19T06:52:00;6.57;;;1.95;;
25237;SDS011;13185;50.872;5.306;2023-09-19T06:54:27;12.50;;;2.08;;
25237;SDS011;13185;50.872;5.306;2023-09-19T06:56:56;14.57;;;2.70;;
25237;SDS011;13185;50.872;5.306;2023-09-19T06:59:23;11.93;;;1.95;;
25237;SDS011;13185;50.872;5.306;2023-09-19T07:01:49;11.93;;;2.20;;
25237;SDS011;13185;50.872;5.306;2023-09-19T07:04:16;11.82;;;1.80;;
25237;SDS011;13185;50.872;5.306;2023-09-19T07:06:42;14.20;;;2.92;;
25237;SDS011;13185;50.872;5.306;2023-09-19T07:09:08;12.15;;;2.38;;
25237;SDS011;13185;50.872;5.306;2023-09-19T07:11:33;16.25;;;3.03;;
25237;SDS011;13185;50.872;5.306;2023-09-19T07:13:59;12.55;;;2.28;;
25237;SDS011;13185;50.872;5.306;2023-09-19T07:16:28;26.33;;;3.88;;
25237;SDS011;13185;50.872;5.306;2023-09-19T07:18:55;25.90;;;4.50;;
25237;SDS011;13185;50.872;5.306;2023-09-19T07:21:22;18.10;;;3.65;;
25237;SDS011;13185;50.872;5.306;2023-09-19T07:23:48;16.30;;;2.65;;
25237;SDS011;13185;50.872;5.306;2023-09-19T07:26:15;13.60;;;2.33;;
25237;SDS011;13185;50.872;5.306;2023-09-19T07:28:41;14.07;;;3.05;;
25237;SDS011;13185;50.872;5.306;2023-09-19T07:31:07;19.33;;;2.97;;
25237;SDS011;13185;50.872;5.306;2023-09-19T07:33:35;10.52;;;2.70;;
25237;SDS011;13185;50.872;5.306;2023-09-19T07:36:01;15.75;;;3.05;;
25237;SDS011;13185;50.872;5.306;2023-09-19T07:38:27;15.52;;;2.50;;
25237;SDS011;13185;50.872;5.306;2023-09-19T07:40:59;52.05;;;28.83;;
25237;SDS011;13185;50.872;5.306;2023-09-19T07:43:29;15.57;;;3.05;;
25237;SDS011;13185;50.872;5.306;2023-09-19T07:46:06;23.52;;;2.95;;
25237;SDS011;13185;50.872;5.306;2023-09-19T07:48:39;25.67;;;3.33;;
25237;SDS011;13185;50.872;5.306;2023-09-19T07:51:06;15.35;;;2.90;;
25237;SDS011;13185;50.872;5.306;2023-09-19T07:53:33;21.17;;;3.10;;
25237;SDS011;13185;50.872;5.306;2023-09-19T07:56:05;15.32;;;2.85;;
25237;SDS011;13185;50.872;5.306;2023-09-19T07:58:31;11.38;;;2.45;;
25237;SDS011;13185;50.872;5.306;2023-09-19T08:01:08;7.65;;;1.55;;
25237;SDS011;13185;50.872;5.306;2023-09-19T08:03:43;11.52;;;2.03;;
25237;SDS011;13185;50.872;5.306;2023-09-19T08:06:10;7.65;;;1.90;;
25237;SDS011;13185;50.872;5.306;2023-09-19T08:08:45;8.45;;;1.40;;
25237;SDS011;13185;50.872;5.306;2023-09-19T08:11:23;11.98;;;1.40;;
25237;SDS011;13185;50.872;5.306;2023-09-19T08:14:00;11.40;;;1.55;;
25237;SDS011;13185;50.872;5.306;2023-09-19T08:16:30;13.15;;;2.28;;
25237;SDS011;13185;50.872;5.306;2023-09-19T08:19:00;11.90;;;1.63;;
25237;SDS011;13185;50.872;5.306;2023-09-19T08:21:36;7.43;;;1.70;;
25237;SDS011;13185;50.872;5.306;2023-09-19T08:24:02;8.02;;;2.17;;
25237;SDS011;13185;50.872;5.306;2023-09-19T08:26:33;10.68;;;2.53;;
25237;SDS011;13185;50.872;5.306;2023-09-19T08:29:07;11.20;;;2.38;;
25237;SDS011;13185;50.872;5.306;2023-09-19T08:31:39;8.13;;;1.42;;
25237;SDS011;13185;50.872;5.306;2023-09-19T08:34:04;11.25;;;2.45;;
25237;SDS011;13185;50.872;5.306;2023-09-19T08:36:30;14.45;;;2.58;;
25237;SDS011;13185;50.872;5.306;2023-09-19T08:39:22;16.90;;;3.92;;
25237;SDS011;13185;50.872;5.306;2023-09-19T08:42:01;14.27;;;2.40;;
25237;SDS011;13185;50.872;5.306;2023-09-19T08:44:27;9.00;;;1.60;;
25237;SDS011;13185;50.872;5.306;2023-09-19T08:47:08;9.43;;;1.77;;
25237;SDS011;13185;50.872;5.306;2023-09-19T08:50:08;8.75;;;2.08;;
25237;SDS011;13185;50.872;5.306;2023-09-19T08:52:46;7.60;;;1.38;;
25237;SDS011;13185;50.872;5.306;2023-09-19T08:55:33;4.70;;;1.10;;
25237;SDS011;13185;50.872;5.306;2023-09-19T08:58:13;7.50;;;1.33;;
25237;SDS011;13185;50.872;5.306;2023-09-19T09:00:59;7.30;;;1.60;;
25237;SDS011;13185;50.872;5.306;2023-09-19T09:03:40;8.20;;;1.98;;
25237;SDS011;13185;50.872;5.306;2023-09-19T09:06:27;14.35;;;2.53;;
25237;SDS011;13185;50.872;5.306;2023-09-19T09:09:10;7.03;;;1.60;;
25237;SDS011;13185;50.872;5.306;2023-09-19T09:11:41;6.53;;;1.33;;
25237;SDS011;13185;50.872;5.306;2023-09-19T09:14:17;6.78;;;2.20;;
25237;SDS011;13185;50.872;5.306;2023-09-19T09:16:47;8.75;;;2.20;;
25237;SDS011;13185;50.872;5.306;2023-09-19T09:19:24;8.95;;;1.80;;
25237;SDS011;13185;50.872;5.306;2023-09-19T09:22:08;9.95;;;1.60;;
25237;SDS011;13185;50.872;5.306;2023-09-19T09:24:57;8.77;;;1.90;;
25237;SDS011;13185;50.872;5.306;2023-09-19T09:27:32;8.02;;;2.05;;
25237;SDS011;13185;50.872;5.306;2023-09-19T09:30:37;8.02;;;1.83;;
25237;SDS011;13185;50.872;5.306;2023-09-19T09:33:17;9.52;;;1.67;;
25237;SDS011;13185;50.872;5.306;2023-09-19T09:35:52;8.23;;;1.50;;
25237;SDS011;13185;50.872;5.306;2023-09-19T09:41:44;7.40;;;1.42;;
25237;SDS011;13185;50.872;5.306;2023-09-19T09:44:24;8.57;;;1.45;;
25237;SDS011;13185;50.872;5.306;2023-09-19T09:47:11;6.10;;;1.50;;
25237;SDS011;13185;50.872;5.306;2023-09-19T09:50:03;8.90;;;1.77;;
25237;SDS011;13185;50.872;5.306;2023-09-19T09:52:43;6.35;;;1.20;;
25237;SDS011;13185;50.872;5.306;2023-09-19T09:55:09;10.05;;;1.55;;
25237;SDS011;13185;50.872;5.306;2023-09-19T09:57:35;8.63;;;1.67;;
25237;SDS011;13185;50.872;5.306;2023-09-19T10:00:01;9.27;;;1.95;;
25237;SDS011;13185;50.872;5.306;2023-09-19T10:02:48;7.88;;;1.52;;
25237;SDS011;13185;50.872;5.306;2023-09-19T10:05:17;6.85;;;2.05;;
25237;SDS011;13185;50.872;5.306;2023-09-19T10:07:48;11.35;;;1.85;;
25237;SDS011;13185;50.872;5.306;2023-09-19T10:10:37;5.80;;;1.20;;
25237;SDS011;13185;50.872;5.306;2023-09-19T10:13:08;7.28;;;1.30;;
25237;SDS011;13185;50.872;5.306;2023-09-19T10:15:39;11.40;;;1.70;;
25237;SDS011;13185;50.872;5.306;2023-09-19T10:18:14;8.98;;;1.85;;
25237;SDS011;13185;50.872;5.306;2023-09-19T10:20:44;8.70;;;1.50;;
25237;SDS011;13185;50.872;5.306;2023-09-19T10:23:11;7.10;;;1.33;;
25237;SDS011;13185;50.872;5.306;2023-09-19T10:25:40;6.43;;;2.00;;
25237;SDS011;13185;50.872;5.306;2023-09-19T10:28:09;6.18;;;1.80;;
25237;SDS011;13185;50.872;5.306;2023-09-19T10:30:43;7.25;;;1.38;;
25237;SDS011;13185;50.872;5.306;2023-09-19T10:33:15;8.07;;;1.30;;
25237;SDS011;13185;50.872;5.306;2023-09-19T10:35:47;6.97;;;1.33;;
25237;SDS011;13185;50.872;5.306;2023-09-19T10:38:16;6.90;;;1.38;;
25237;SDS011;13185;50.872;5.306;2023-09-19T10:40:50;4.50;;;1.10;;
25237;SDS011;13185;50.872;5.306;2023-09-19T10:43:17;5.75;;;1.25;;
25237;SDS011;13185;50.872;5.306;2023-09-19T10:45:46;4.30;;;1.40;;
25237;SDS011;13185;50.872;5.306;2023-09-19T10:48:14;8.48;;;2.03;;
25237;SDS011;13185;50.872;5.306;2023-09-19T10:53:50;9.00;;;2.00;;
25237;SDS011;13185;50.872;5.306;2023-09-19T10:56:26;9.45;;;1.80;;
25237;SDS011;13185;50.872;5.306;2023-09-19T10:59:19;8.45;;;1.10;;
25237;SDS011;13185;50.872;5.306;2023-09-19T11:01:44;6.28;;;1.15;;
25237;SDS011;13185;50.872;5.306;2023-09-19T11:04:33;9.43;;;1.55;;
25237;SDS011;13185;50.872;5.306;2023-09-19T11:15:11;6.53;;;1.23;;
25237;SDS011;13185;50.872;5.306;2023-09-19T11:19:00;4.25;;;0.93;;
25237;SDS011;13185;50.872;5.306;2023-09-19T11:26:44;4.63;;;0.98;;
25237;SDS011;13185;50.872;5.306;2023-09-19T11:29:28;4.22;;;1.08;;
25237;SDS011;13185;50.872;5.306;2023-09-19T11:31:58;9.88;;;1.42;;
25237;SDS011;13185;50.872;5.306;2023-09-19T11:40:09;4.07;;;0.88;;
25237;SDS011;13185;50.872;5.306;2023-09-19T11:42:45;12.57;;;2.45;;
25237;SDS011;13185;50.872;5.306;2023-09-19T11:48:15;4.15;;;0.90;;
25237;SDS011;13185;50.872;5.306;2023-09-19T11:50:43;3.35;;;0.63;;
25237;SDS011;13185;50.872;5.306;2023-09-19T11:53:11;3.67;;;0.85;;
25237;SDS011;13185;50.872;5.306;2023-09-19T11:55:38;3.20;;;0.57;;
25237;SDS011;13185;50.872;5.306;2023-09-19T11:58:04;4.00;;;0.65;;
25237;SDS011;13185;50.872;5.306;2023-09-19T12:00:32;4.05;;;0.60;;
25237;SDS011;13185;50.872;5.306;2023-09-19T12:03:01;6.13;;;0.73;;
25237;SDS011;13185;50.872;5.306;2023-09-19T12:05:34;6.05;;;0.68;;
25237;SDS011;13185;50.872;5.306;2023-09-19T12:08:00;4.82;;;0.80;;
25237;SDS011;13185;50.872;5.306;2023-09-19T12:10:32;4.20;;;0.60;;
25237;SDS011;13185;50.872;5.306;2023-09-19T12:12:58;1.65;;;0.30;;
25237;SDS011;13185;50.872;5.306;2023-09-19T12:15:28;3.30;;;0.40;;
25237;SDS011;13185;50.872;5.306;2023-09-19T12:17:59;3.47;;;0.35;;
25237;SDS011;13185;50.872;5.306;2023-09-19T12:20:44;1.95;;;0.43;;
25237;SDS011;13185;50.872;5.306;2023-09-19T12:23:13;2.92;;;0.32;;
25237;SDS011;13185;50.872;5.306;2023-09-19T12:25:42;0.75;;;0.20;;
25237;SDS011;13185;50.872;5.306;2023-09-19T12:28:19;2.97;;;0.50;;
25237;SDS011;13185;50.872;5.306;2023-09-19T12:30:47;1.35;;;0.30;;
25237;SDS011;13185;50.872;5.306;2023-09-19T12:33:17;4.20;;;0.60;;
25237;SDS011;13185;50.872;5.306;2023-09-19T12:35:45;3.88;;;0.75;;
25237;SDS011;13185;50.872;5.306;2023-09-19T12:38:10;16.27;;;1.48;;
25237;SDS011;13185;50.872;5.306;2023-09-19T12:40:37;4.97;;;0.40;;
25237;SDS011;13185;50.872;5.306;2023-09-19T12:43:07;3.60;;;0.70;;
25237;SDS011;13185;50.872;5.306;2023-09-19T12:45:34;2.72;;;0.30;;
25237;SDS011;13185;50.872;5.306;2023-09-19T12:53:38;4.35;;;0.68;;
25237;SDS011;13185;50.872;5.306;2023-09-19T12:56:12;3.03;;;0.38;;
25237;SDS011;13185;50.872;5.306;2023-09-19T12:58:55;2.38;;;0.40;;
25237;SDS011;13185;50.872;5.306;2023-09-19T13:01:24;5.43;;;0.52;;
25237;SDS011;13185;50.872;5.306;2023-09-19T13:06:43;2.00;;;0.35;;
25237;SDS011;13185;50.872;5.306;2023-09-19T13:09:12;4.07;;;0.68;;
25237;SDS011;13185;50.872;5.306;2023-09-19T13:11:40;2.55;;;0.40;;
25237;SDS011;13185;50.872;5.306;2023-09-19T13:16:57;12.30;;;1.10;;
25237;SDS011;13185;50.872;5.306;2023-09-19T13:20:04;4.20;;;0.40;;
25237;SDS011;13185;50.872;5.306;2023-09-19T13:22:42;5.50;;;0.38;;
25237;SDS011;13185;50.872;5.306;2023-09-19T13:25:17;2.72;;;0.43;;
25237;SDS011;13185;50.872;5.306;2023-09-19T13:27:44;5.00;;;0.40;;
25237;SDS011;13185;50.872;5.306;2023-09-19T13:30:17;3.30;;;0.80;;
25237;SDS011;13185;50.872;5.306;2023-09-19T13:32:44;5.63;;;0.70;;
25237;SDS011;13185;50.872;5.306;2023-09-19T13:35:12;2.55;;;0.57;;
25237;SDS011;13185;50.872;5.306;2023-09-19T13:37:39;2.25;;;0.63;;
25237;SDS011;13185;50.872;5.306;2023-09-19T13:40:11;8.90;;;1.33;;
25237;SDS011;13185;50.872;5.306;2023-09-19T13:42:38;2.28;;;0.35;;
25237;SDS011;13185;50.872;5.306;2023-09-19T13:45:05;17.50;;;1.88;;
25237;SDS011;13185;50.872;5.306;2023-09-19T13:47:31;5.18;;;0.73;;
25237;SDS011;13185;50.872;5.306;2023-09-19T13:49:58;2.63;;;0.43;;
25237;SDS011;13185;50.872;5.306;2023-09-19T13:52:26;6.88;;;0.68;;
25237;SDS011;13185;50.872;5.306;2023-09-19T13:54:56;6.15;;;0.60;;
25237;SDS011;13185;50.872;5.306;2023-09-19T13:57:22;4.82;;;0.90;;
25237;SDS011;13185;50.872;5.306;2023-09-19T13:59:49;3.85;;;0.52;;
25237;SDS011;13185;50.872;5.306;2023-09-19T14:02:16;2.97;;;0.40;;
25237;SDS011;13185;50.872;5.306;2023-09-19T14:04:43;6.63;;;0.50;;
25237;SDS011;13185;50.872;5.306;2023-09-19T14:07:11;4.30;;;0.57;;
25237;SDS011;13185;50.872;5.306;2023-09-19T14:09:37;10.57;;;1.88;;
25237;SDS011;13185;50.872;5.306;2023-09-19T14:12:03;3.05;;;0.52;;
25237;SDS011;13185;50.872;5.306;2023-09-19T14:14:28;2.20;;;0.60;;
25237;SDS011;13185;50.872;5.306;2023-09-19T14:16:54;1.95;;;0.32;;
25237;SDS011;13185;50.872;5.306;2023-09-19T14:19:20;1.92;;;0.70;;
25237;SDS011;13185;50.872;5.306;2023-09-19T14:21:46;3.63;;;0.60;;
25237;SDS011;13185;50.872;5.306;2023-09-19T14:24:15;3.83;;;0.65;;
25237;SDS011;13185;50.872;5.306;2023-09-19T14:26:43;3.78;;;0.50;;
25237;SDS011;13185;50.872;5.306;2023-09-19T14:29:08;2.40;;;0.70;;
25237;SDS011;13185;50.872;5.306;2023-09-19T14:31:36;2.30;;;0.50;;
25237;SDS011;13185;50.872;5.306;2023-09-19T14:34:03;3.60;;;0.60;;
25237;SDS011;13185;50.872;5.306;2023-09-19T14:36:30;1.85;;;0.60;;
25237;SDS011;13185;50.872;5.306;2023-09-19T14:38:56;3.40;;;0.30;;
25237;SDS011;13185;50.872;5.306;2023-09-19T14:41:24;3.08;;;0.70;;
25237;SDS011;13185;50.872;5.306;2023-09-19T14:43:51;6.15;;;0.50;;
25237;SDS011;13185;50.872;5.306;2023-09-19T14:46:17;3.55;;;0.47;;
25237;SDS011;13185;50.872;5.306;2023-09-19T14:48:43;4.75;;;1.15;;
25237;SDS011;13185;50.872;5.306;2023-09-19T14:51:11;1.38;;;0.38;;
25237;SDS011;13185;50.872;5.306;2023-09-19T14:53:37;5.32;;;0.60;;
25237;SDS011;13185;50.872;5.306;2023-09-19T14:56:07;4.25;;;0.55;;
25237;SDS011;13185;50.872;5.306;2023-09-19T14:58:34;4.93;;;0.40;;
25237;SDS011;13185;50.872;5.306;2023-09-19T15:01:04;2.90;;;0.50;;
25237;SDS011;13185;50.872;5.306;2023-09-19T15:03:35;1.85;;;0.50;;
25237;SDS011;13185;50.872;5.306;2023-09-19T15:06:02;3.00;;;0.73;;
25237;SDS011;13185;50.872;5.306;2023-09-19T15:08:34;2.70;;;0.50;;
25237;SDS011;13185;50.872;5.306;2023-09-19T15:11:05;4.00;;;0.40;;
25237;SDS011;13185;50.872;5.306;2023-09-19T15:13:35;3.30;;;0.60;;
25237;SDS011;13185;50.872;5.306;2023-09-19T15:16:02;3.47;;;0.63;;
25237;SDS011;13185;50.872;5.306;2023-09-19T15:18:28;2.65;;;0.47;;
25237;SDS011;13185;50.872;5.306;2023-09-19T15:21:02;4.85;;;1.15;;
25237;SDS011;13185;50.872;5.306;2023-09-19T15:23:31;1.40;;;0.40;;
25237;SDS011;13185;50.872;5.306;2023-09-19T15:26:00;2.75;;;0.43;;
25237;SDS011;13185;50.872;5.306;2023-09-19T15:28:27;3.85;;;0.60;;
25237;SDS011;13185;50.872;5.306;2023-09-19T15:30:57;3.05;;;0.52;;
25237;SDS011;13185;50.872;5.306;2023-09-19T15:33:26;3.40;;;0.60;;
25237;SDS011;13185;50.872;5.306;2023-09-19T15:38:29;5.47;;;0.85;;
25237;SDS011;13185;50.872;5.306;2023-09-19T15:40:55;3.85;;;0.80;;
25237;SDS011;13185;50.872;5.306;2023-09-19T15:43:20;2.63;;;0.65;;
25237;SDS011;13185;50.872;5.306;2023-09-19T15:45:47;5.75;;;1.02;;
25237;SDS011;13185;50.872;5.306;2023-09-19T15:48:13;2.85;;;0.80;;
25237;SDS011;13185;50.872;5.306;2023-09-19T15:50:39;5.60;;;1.10;;
25237;SDS011;13185;50.872;5.306;2023-09-19T15:53:07;5.22;;;0.90;;
25237;SDS011;13185;50.872;5.306;2023-09-19T15:55:38;5.55;;;0.70;;
25237;SDS011;13185;50.872;5.306;2023-09-19T15:58:08;5.47;;;0.85;;
25237;SDS011;13185;50.872;5.306;2023-09-19T16:00:34;2.72;;;0.65;;